createdAt,value
2023-05-21T00:00:14.525Z,102116.19
2023-05-21T00:02:43.048Z,102118.13
2023-05-21T00:05:14.799Z,102116.94
2023-05-21T00:07:43.062Z,102115.00
2023-05-21T00:10:11.695Z,102111.97
2023-05-21T00:12:41.821Z,102109.38
2023-05-21T00:15:11.004Z,102116.81
2023-05-21T00:17:40.085Z,102104.72
2023-05-21T00:20:09.970Z,102103.69
2023-05-21T00:22:37.771Z,102113.19
2023-05-21T00:25:06.478Z,102104.94
2023-05-21T00:27:34.272Z,102110.06
2023-05-21T00:30:04.275Z,102107.31
2023-05-21T00:32:32.123Z,102111.75
2023-05-21T00:34:59.988Z,102109.69
2023-05-21T00:37:29.842Z,102104.66
2023-05-21T00:39:58.463Z,102093.63
2023-05-21T00:42:27.399Z,102093.81
2023-05-21T00:44:55.568Z,102089.53
2023-05-21T00:47:26.961Z,102085.03
2023-05-21T00:49:55.728Z,102089.91
2023-05-21T00:52:26.793Z,102090.06
2023-05-21T00:54:55.055Z,102078.31
2023-05-21T00:57:27.133Z,102073.16
2023-05-21T00:59:55.277Z,102069.25
2023-05-21T01:02:26.168Z,102071.03
2023-05-21T01:04:55.813Z,102071.78
2023-05-21T01:07:23.626Z,102072.25
2023-05-21T01:09:51.445Z,102071.22
2023-05-21T01:12:20.626Z,102077.59
2023-05-21T01:14:49.253Z,102065.72
2023-05-21T01:17:17.752Z,102069.69
2023-05-21T01:19:48.608Z,102077.03
2023-05-21T01:22:18.815Z,102071.34
2023-05-21T01:24:51.352Z,102070.28
2023-05-21T01:27:20.012Z,102065.13
2023-05-21T01:29:47.835Z,102070.50
2023-05-21T01:32:22.186Z,102068.09
2023-05-21T01:35:00.871Z,102071.72
2023-05-21T01:37:35.392Z,102063.69
2023-05-21T01:40:11.974Z,102057.34
2023-05-21T01:42:44.626Z,102056.63
2023-05-21T01:45:15.348Z,102057.81
2023-05-21T01:47:46.279Z,102050.88
2023-05-21T01:50:15.446Z,102057.25
2023-05-21T01:52:50.988Z,102056.22
2023-05-21T01:55:24.550Z,102047.13
2023-05-21T01:57:53.956Z,102045.06
2023-05-21T02:00:22.829Z,102056.97
2023-05-21T02:02:50.862Z,102055.72
2023-05-21T02:05:19.006Z,102057.13
2023-05-21T02:07:47.330Z,102060.25
2023-05-21T02:10:15.975Z,102054.56
2023-05-21T02:12:45.307Z,102054.38
2023-05-21T02:15:14.336Z,102057.13
2023-05-21T02:17:42.580Z,102054.00
2023-05-21T02:20:13.926Z,102056.09
2023-05-21T02:22:42.923Z,102051.63
2023-05-21T02:25:11.939Z,102046.19
2023-05-21T02:27:40.706Z,102048.63
2023-05-21T02:30:12.446Z,102047.47
2023-05-21T02:32:42.730Z,102038.34
2023-05-21T02:35:11.923Z,102037.00
2023-05-21T02:37:41.292Z,102043.53
2023-05-21T02:40:10.779Z,102046.84
2023-05-21T02:42:40.457Z,102042.22
2023-05-21T02:45:12.966Z,102042.44
2023-05-21T02:47:43.347Z,102041.63
2023-05-21T02:50:11.350Z,102037.84
2023-05-21T02:52:45.633Z,102035.09
2023-05-21T02:55:13.568Z,102037.00
2023-05-21T02:57:41.506Z,102042.31
2023-05-21T03:00:11.489Z,102033.41
2023-05-21T03:02:42.256Z,102041.00
2023-05-21T03:05:11.222Z,102034.97
2023-05-21T03:07:39.011Z,102040.47
2023-05-21T03:10:08.224Z,102031.19
2023-05-21T03:12:36.498Z,102025.34
2023-05-21T03:15:04.803Z,102031.72
2023-05-21T03:17:32.751Z,102027.69
2023-05-21T03:20:02.096Z,102021.69
2023-05-21T03:22:30.130Z,102023.81
2023-05-21T03:24:58.377Z,102019.84
2023-05-21T03:27:27.042Z,102025.34
2023-05-21T03:29:56.137Z,102021.53
2023-05-21T03:32:24.644Z,102018.22
2023-05-21T03:34:53.762Z,102027.94
2023-05-21T03:37:23.017Z,102029.16
2023-05-21T03:39:50.866Z,102021.94
2023-05-21T03:42:19.007Z,102031.56
2023-05-21T03:44:51.286Z,102029.47
2023-05-21T03:47:48.904Z,102027.34
2023-05-21T03:50:17.585Z,102028.88
2023-05-21T03:52:46.825Z,102034.75
2023-05-21T03:55:14.579Z,102032.84
2023-05-21T03:57:42.588Z,102030.38
2023-05-21T04:00:11.152Z,102037.41
2023-05-21T04:02:45.090Z,102034.31
2023-05-21T04:05:16.646Z,102027.56
2023-05-21T04:07:46.535Z,102022.56
2023-05-21T04:10:15.538Z,102032.91
2023-05-21T04:12:43.485Z,102028.75
2023-05-21T04:15:12.740Z,102023.06
2023-05-21T04:17:40.585Z,102023.06
2023-05-21T04:20:09.662Z,102018.22
2023-05-21T04:22:38.185Z,102025.16
2023-05-21T04:25:08.295Z,102022.56
2023-05-21T04:27:38.911Z,102022.03
2023-05-21T04:30:08.580Z,102028.22
2023-05-21T04:32:38.629Z,102028.22
2023-05-21T04:35:10.106Z,102021.69
2023-05-21T04:37:42.049Z,102028.03
2023-05-21T04:40:12.359Z,102022.16
2023-05-21T04:42:41.282Z,102027.69
2023-05-21T04:45:11.332Z,102017.31
2023-05-21T04:47:41.687Z,102029.38
2023-05-21T04:50:11.966Z,102024.91
2023-05-21T04:52:40.502Z,102026.63
2023-05-21T04:55:09.208Z,102027.31
2023-05-21T04:57:38.598Z,102034.88
2023-05-21T05:00:08.728Z,102031.09
2023-05-21T05:02:41.760Z,102026.44
2023-05-21T05:05:10.272Z,102029.03
2023-05-21T05:07:38.609Z,102020.94
2023-05-21T05:10:07.582Z,102027.69
2023-05-21T05:12:35.441Z,102020.44
2023-05-21T05:15:05.890Z,102029.56
2023-05-21T05:17:35.585Z,102018.41
2023-05-21T05:20:04.223Z,102019.94
2023-05-21T05:22:32.099Z,102016.66
2023-05-21T05:24:59.914Z,102013.72
2023-05-21T05:27:27.790Z,102016.53
2023-05-21T05:29:56.739Z,102012.56
2023-05-21T05:32:26.139Z,102014.28
2023-05-21T05:34:54.073Z,102014.56
2023-05-21T05:37:21.914Z,102008.91
2023-05-21T05:39:50.311Z,102012.81
2023-05-21T05:42:18.130Z,102019.19
2023-05-21T05:44:46.644Z,102011.41
2023-05-21T05:47:14.529Z,102010.56
2023-05-21T05:49:43.721Z,102004.88
2023-05-21T05:52:11.991Z,102006.78
2023-05-21T05:54:39.929Z,102012.94
2023-05-21T05:57:07.766Z,102006.41
2023-05-21T05:59:36.763Z,102005.69
2023-05-21T06:02:06.265Z,102002.44
2023-05-21T06:04:34.353Z,102000.84
2023-05-21T06:07:03.577Z,101998.59
2023-05-21T06:09:31.423Z,101996.31
2023-05-21T06:11:59.282Z,102003.06
2023-05-21T06:14:27.172Z,102000.91
2023-05-21T06:16:55.547Z,101999.69
2023-05-21T06:19:23.539Z,102008.44
2023-05-21T06:21:51.557Z,102003.25
2023-05-21T06:24:22.205Z,102004.00
2023-05-21T06:26:50.025Z,102000.94
2023-05-21T06:29:18.178Z,102008.41
2023-05-21T06:31:47.727Z,102007.03
2023-05-21T06:34:15.740Z,101994.53
2023-05-21T06:36:43.567Z,101992.78
2023-05-21T06:39:11.639Z,101991.75
2023-05-21T06:41:41.072Z,101990.16
2023-05-21T06:44:25.354Z,101997.69
2023-05-21T06:47:15.053Z,101989.75
2023-05-21T06:49:42.939Z,101986.13
2023-05-21T06:52:11.267Z,101983.00
2023-05-21T06:54:39.652Z,101976.63
2023-05-21T06:57:09.772Z,101977.34
2023-05-21T06:59:37.597Z,101974.91
2023-05-21T07:02:05.796Z,101980.59
2023-05-21T07:04:35.277Z,101982.84
2023-05-21T07:07:04.635Z,101981.44
2023-05-21T07:09:32.912Z,101973.69
2023-05-21T07:12:01.277Z,101980.75
2023-05-21T07:14:30.492Z,101986.44
2023-05-21T07:16:58.954Z,101985.94
2023-05-21T07:19:26.948Z,101975.06
2023-05-21T07:21:54.891Z,101980.00
2023-05-21T07:24:23.565Z,101975.69
2023-05-21T07:26:51.425Z,101973.00
2023-05-21T07:29:19.283Z,101971.63
2023-05-21T07:31:48.866Z,101971.97
2023-05-21T07:34:17.295Z,101977.97
2023-05-21T07:36:46.428Z,101980.75
2023-05-21T07:39:14.335Z,101974.66
2023-05-21T07:41:43.516Z,101970.66
2023-05-21T07:44:11.585Z,101978.41
2023-05-21T07:46:42.778Z,101976.63
2023-05-21T07:49:16.759Z,101973.97
2023-05-21T07:51:45.966Z,101973.88
2023-05-21T07:54:13.907Z,101971.72
2023-05-21T07:56:41.964Z,101965.41
2023-05-21T07:59:18.164Z,101955.56
2023-05-21T08:01:46.913Z,101960.41
2023-05-21T08:04:16.251Z,101960.41
2023-05-21T08:06:44.419Z,101953.50
2023-05-21T08:09:12.299Z,101958.59
2023-05-21T08:11:40.144Z,101950.91
2023-05-21T08:14:08.403Z,101949.13
2023-05-21T08:16:36.829Z,101957.00
2023-05-21T08:19:05.191Z,101952.81
2023-05-21T08:21:35.024Z,101953.88
2023-05-21T08:24:03.357Z,101960.25
2023-05-21T08:26:31.285Z,101956.63
2023-05-21T08:28:59.233Z,101960.63
2023-05-21T08:31:27.349Z,101965.00
2023-05-21T08:33:56.590Z,101963.13
2023-05-21T08:36:37.489Z,101965.50
2023-05-21T08:39:12.935Z,101967.06
2023-05-21T08:41:49.638Z,101968.63
2023-05-21T08:44:22.458Z,101968.25
2023-05-21T08:46:51.788Z,101966.72
2023-05-21T08:49:25.742Z,101974.53
2023-05-21T08:52:00.609Z,101967.66
2023-05-21T08:54:28.911Z,101964.41
2023-05-21T08:56:59.181Z,101968.03
2023-05-21T08:59:28.179Z,101965.13
2023-05-21T09:01:57.767Z,101961.81
2023-05-21T09:04:33.863Z,101967.19
2023-05-21T09:07:03.836Z,101974.53
2023-05-21T09:09:56.059Z,101963.91
2023-05-21T09:12:24.597Z,101965.59
2023-05-21T09:14:53.128Z,101965.59
2023-05-21T09:17:26.529Z,101954.44
2023-05-21T09:20:12.431Z,101961.19
2023-05-21T09:22:46.450Z,101957.22
2023-05-21T09:25:16.390Z,101958.03
2023-05-21T09:27:44.485Z,101954.13
2023-05-21T09:30:13.752Z,101957.31
2023-05-21T09:32:43.191Z,101957.31
2023-05-21T09:35:12.556Z,101957.78
2023-05-21T09:37:41.054Z,101949.41
2023-05-21T09:40:17.232Z,101949.69
2023-05-21T09:42:48.309Z,101953.78
2023-05-21T09:45:19.700Z,101948.66
2023-05-21T09:47:49.014Z,101942.75
2023-05-21T09:50:21.394Z,101939.97
2023-05-21T09:52:50.422Z,101947.88
2023-05-21T09:55:23.016Z,101945.38
2023-05-21T09:57:51.465Z,101941.72
2023-05-21T10:00:21.221Z,101944.94
2023-05-21T10:02:50.768Z,101938.19
2023-05-21T10:05:18.863Z,101942.53
2023-05-21T10:07:51.465Z,101934.00
2023-05-21T10:10:22.773Z,101936.06
2023-05-21T10:12:56.059Z,101926.53
2023-05-21T10:15:25.868Z,101921.56
2023-05-21T10:17:56.736Z,101925.19
2023-05-21T10:20:25.288Z,101924.06
2023-05-21T10:22:54.017Z,101918.16
2023-05-21T10:25:24.685Z,101923.28
2023-05-21T10:27:53.063Z,101921.78
2023-05-21T10:30:23.162Z,101919.44
2023-05-21T10:32:51.491Z,101917.56
2023-05-21T10:35:20.147Z,101914.78
2023-05-21T10:37:48.034Z,101922.91
2023-05-21T10:40:16.259Z,101918.78
2023-05-21T10:43:07.415Z,101910.34
2023-05-21T10:45:48.721Z,101904.19
2023-05-21T10:48:31.716Z,101903.25
2023-05-21T10:51:20.092Z,101899.09
2023-05-21T10:54:18.782Z,101902.53
2023-05-21T10:56:54.091Z,101897.03
2023-05-21T10:59:36.763Z,101901.38
2023-05-21T11:02:07.031Z,101898.53
2023-05-21T11:04:39.956Z,101883.38
2023-05-21T11:07:08.305Z,101887.31
2023-05-21T11:09:36.448Z,101876.28
2023-05-21T11:12:05.065Z,101887.31
2023-05-21T11:14:39.711Z,101891.47
2023-05-21T11:17:13.665Z,101886.78
2023-05-21T11:19:43.358Z,101881.88
2023-05-21T11:22:22.432Z,101873.22
2023-05-21T11:24:51.722Z,101866.22
2023-05-21T11:27:35.245Z,101869.09
2023-05-21T11:30:08.014Z,101864.25
2023-05-21T11:32:39.849Z,101867.66
2023-05-21T11:35:08.944Z,101866.66
2023-05-21T11:37:40.678Z,101866.59
2023-05-21T11:40:32.520Z,101852.50
2023-05-21T11:43:00.439Z,101849.97
2023-05-21T11:45:32.377Z,101846.44
2023-05-21T11:48:01.133Z,101849.88
2023-05-21T11:50:30.873Z,101852.03
2023-05-21T11:53:00.909Z,101846.28
2023-05-21T11:55:28.957Z,101849.31
2023-05-21T11:57:56.744Z,101848.91
2023-05-21T12:00:24.699Z,101850.13
2023-05-21T12:02:56.247Z,101848.44
2023-05-21T12:05:25.052Z,101830.75
2023-05-21T12:07:54.644Z,101836.00
2023-05-21T12:10:24.222Z,101842.16
2023-05-21T12:12:56.317Z,101841.25
2023-05-21T12:15:27.188Z,101836.75
2023-05-21T12:17:57.867Z,101835.50
2023-05-21T12:20:28.190Z,101837.41
2023-05-21T12:22:58.868Z,101838.44
2023-05-21T12:25:27.432Z,101834.22
2023-05-21T12:27:58.316Z,101835.31
2023-05-21T12:30:26.861Z,101841.66
2023-05-21T12:32:54.805Z,101837.09
2023-05-21T12:35:25.113Z,101832.69
2023-05-21T12:37:53.431Z,101831.69
2023-05-21T12:40:22.481Z,101833.72
2023-05-21T12:42:51.739Z,101829.53
2023-05-21T12:45:22.188Z,101833.44
2023-05-21T12:47:56.014Z,101834.91
2023-05-21T12:50:26.226Z,101833.97
2023-05-21T12:52:58.941Z,101831.56
2023-05-21T12:55:27.161Z,101833.97
2023-05-21T12:58:07.835Z,101834.28
2023-05-21T13:00:36.335Z,101836.69
2023-05-21T13:03:06.386Z,101827.38
2023-05-21T13:05:36.561Z,101825.66
2023-05-21T13:08:04.688Z,101822.91
2023-05-21T13:10:32.636Z,101829.09
2023-05-21T13:13:00.482Z,101831.81
2023-05-21T13:15:28.552Z,101823.75
2023-05-21T13:17:57.196Z,101823.19
2023-05-21T13:20:27.488Z,101818.69
2023-05-21T13:22:56.990Z,101815.97
2023-05-21T13:25:28.835Z,101818.91
2023-05-21T13:27:57.554Z,101817.00
2023-05-21T13:30:25.583Z,101816.41
2023-05-21T13:32:53.547Z,101810.44
2023-05-21T13:35:21.764Z,101808.94
2023-05-21T13:37:50.289Z,101803.16
2023-05-21T13:40:19.532Z,101795.72
2023-05-21T13:42:49.404Z,101788.47
2023-05-21T13:45:19.536Z,101787.19
2023-05-21T13:47:48.410Z,101787.81
2023-05-21T13:50:17.590Z,101779.75
2023-05-21T13:52:45.958Z,101787.41
2023-05-21T13:55:15.858Z,101779.75
2023-05-21T13:57:46.044Z,101776.75
2023-05-21T14:00:16.794Z,101763.91
2023-05-21T14:02:45.495Z,101765.38
2023-05-21T14:05:15.387Z,101768.13
2023-05-21T14:07:43.264Z,101767.91
2023-05-21T14:10:11.762Z,101763.88
2023-05-21T14:12:40.613Z,101757.91
2023-05-21T14:15:10.753Z,101759.63
2023-05-21T14:17:40.501Z,101751.69
2023-05-21T14:20:10.052Z,101750.19
2023-05-21T14:22:38.645Z,101751.22
2023-05-21T14:25:07.560Z,101751.34
2023-05-21T14:27:37.969Z,101742.38
2023-05-21T14:30:06.795Z,101744.53
2023-05-21T14:32:36.047Z,101746.19
2023-05-21T14:35:05.065Z,101739.22
2023-05-21T14:37:33.003Z,101742.81
2023-05-21T14:40:01.017Z,101749.84
2023-05-21T14:42:29.121Z,101740.50
2023-05-21T14:47:26.538Z,101738.81
2023-05-21T14:49:55.678Z,101738.84
2023-05-21T14:52:23.522Z,101729.78
2023-05-21T14:54:51.312Z,101723.16
2023-05-21T14:57:19.099Z,101719.38
2023-05-21T14:59:47.155Z,101710.00
2023-05-21T15:02:15.146Z,101712.16
2023-05-21T15:04:44.002Z,101720.50
2023-05-21T15:07:13.140Z,101719.38
2023-05-21T15:09:40.882Z,101720.75
2023-05-21T15:12:08.849Z,101714.09
2023-05-21T15:14:36.722Z,101714.47
2023-05-21T15:17:05.084Z,101706.97
2023-05-21T15:19:33.273Z,101711.31
2023-05-21T15:22:01.265Z,101709.75
2023-05-21T15:24:30.447Z,101709.94
2023-05-21T15:26:58.328Z,101709.00
2023-05-21T15:29:26.158Z,101708.53
2023-05-21T15:31:53.961Z,101707.22
2023-05-21T15:34:21.858Z,101710.16
2023-05-21T15:36:49.856Z,101706.34
2023-05-21T15:39:17.646Z,101700.78
2023-05-21T15:41:46.748Z,101700.91
2023-05-21T15:44:14.629Z,101697.03
2023-05-21T15:46:42.617Z,101701.38
2023-05-21T15:49:10.614Z,101698.97
2023-05-21T15:51:40.293Z,101702.59
2023-05-21T15:54:08.400Z,101692.22
2023-05-21T15:56:36.439Z,101695.03
2023-05-21T15:59:06.134Z,101693.63
2023-05-21T16:01:34.486Z,101688.19
2023-05-21T16:04:02.712Z,101686.34
2023-05-21T16:06:31.464Z,101678.09
2023-05-21T16:08:59.393Z,101686.56
2023-05-21T16:11:27.479Z,101680.72
2023-05-21T16:13:55.744Z,101686.19
2023-05-21T16:16:25.085Z,101679.06
2023-05-21T16:18:53.002Z,101681.09
2023-05-21T16:21:21.076Z,101680.50
2023-05-21T16:23:49.191Z,101683.03
2023-05-21T16:26:17.182Z,101680.13
2023-05-21T16:28:45.023Z,101671.31
2023-05-21T16:31:13.873Z,101679.28
2023-05-21T16:33:43.106Z,101678.44
2023-05-21T16:36:11.169Z,101674.56
2023-05-21T16:38:39.247Z,101669.38
2023-05-21T16:41:07.159Z,101669.50
2023-05-21T16:43:35.141Z,101671.69
2023-05-21T16:46:03.277Z,101671.69
2023-05-21T16:48:32.310Z,101675.06
2023-05-21T16:51:02.360Z,101665.03
2023-05-21T16:53:30.481Z,101668.19
2023-05-21T16:55:58.347Z,101663.00
2023-05-21T16:58:26.215Z,101656.41
2023-05-21T17:00:54.216Z,101660.56
2023-05-21T17:03:22.125Z,101648.56
2023-05-21T17:05:50.359Z,101654.78
2023-05-21T17:08:19.639Z,101652.47
2023-05-21T17:10:47.745Z,101652.19
2023-05-21T17:13:22.301Z,101648.91
2023-05-21T17:15:51.596Z,101651.44
2023-05-21T17:18:19.608Z,101657.47
2023-05-21T17:20:47.461Z,101649.59
2023-05-21T17:23:15.637Z,101652.69
2023-05-21T17:25:45.089Z,101648.56
2023-05-21T17:28:12.878Z,101648.19
2023-05-21T17:30:41.014Z,101656.63
2023-05-21T17:33:10.367Z,101645.88
2023-05-21T17:35:39.272Z,101654.50
2023-05-21T17:38:07.533Z,101645.88
2023-05-21T17:40:35.657Z,101651.22
2023-05-21T17:43:07.307Z,101649.31
2023-05-21T17:45:35.629Z,101650.69
2023-05-21T17:48:04.020Z,101651.56
2023-05-21T17:50:32.157Z,101651.56
2023-05-21T17:53:00.411Z,101652.03
2023-05-21T17:55:28.326Z,101654.81
2023-05-21T17:57:56.374Z,101660.47
2023-05-21T18:00:25.845Z,101650.50
2023-05-21T18:02:53.780Z,101654.91
2023-05-21T18:05:22.761Z,101653.41
2023-05-21T18:07:50.926Z,101652.97
2023-05-21T18:10:19.454Z,101652.41
2023-05-21T18:12:47.320Z,101657.75
2023-05-21T18:15:16.027Z,101658.66
2023-05-21T18:17:45.550Z,101656.75
2023-05-21T18:20:14.875Z,101654.66
2023-05-21T18:22:42.876Z,101658.75
2023-05-21T18:25:11.428Z,101660.41
2023-05-21T18:27:39.737Z,101659.59
2023-05-21T18:30:08.937Z,101664.31
2023-05-21T18:32:39.200Z,101661.59
2023-05-21T18:35:11.967Z,101655.66
2023-05-21T18:37:44.326Z,101664.44
2023-05-21T18:40:13.298Z,101668.28
2023-05-21T18:42:41.331Z,101659.56
2023-05-21T18:45:10.300Z,101661.47
2023-05-21T18:47:40.196Z,101658.72
2023-05-21T18:50:12.492Z,101665.59
2023-05-21T18:52:40.402Z,101663.47
2023-05-21T18:55:09.153Z,101668.81
2023-05-21T18:57:38.172Z,101664.78
2023-05-21T19:00:09.552Z,101666.50
2023-05-21T19:02:37.739Z,101660.31
2023-05-21T19:05:06.628Z,101662.03
2023-05-21T19:07:36.218Z,101658.63
2023-05-21T19:10:04.237Z,101655.69
2023-05-21T19:12:32.472Z,101662.09
2023-05-21T19:15:00.350Z,101657.47
2023-05-21T19:17:28.394Z,101655.97
2023-05-21T19:19:56.720Z,101658.53
2023-05-21T19:22:24.966Z,101657.50
2023-05-21T19:24:54.568Z,101659.66
2023-05-21T19:27:22.584Z,101667.97
2023-05-21T19:29:50.553Z,101664.59
2023-05-21T19:32:18.729Z,101667.81
2023-05-21T19:34:46.621Z,101660.63
2023-05-21T19:37:16.742Z,101662.84
2023-05-21T19:39:49.516Z,101656.03
2023-05-21T19:42:21.552Z,101660.97
2023-05-21T19:44:49.468Z,101655.41
2023-05-21T19:47:17.464Z,101665.06
2023-05-21T19:49:45.655Z,101661.88
2023-05-21T19:52:13.513Z,101662.53
2023-05-21T19:54:41.434Z,101655.47
2023-05-21T19:57:12.132Z,101654.00
2023-05-21T19:59:41.735Z,101653.78
2023-05-21T20:02:13.286Z,101656.81
2023-05-21T20:04:41.544Z,101659.59
2023-05-21T20:07:11.169Z,101656.63
2023-05-21T20:09:40.221Z,101651.94
2023-05-21T20:12:09.120Z,101649.84
2023-05-21T20:14:37.037Z,101650.28
2023-05-21T20:17:07.201Z,101652.81
2023-05-21T20:19:36.255Z,101647.72
2023-05-21T20:22:04.508Z,101648.16
2023-05-21T20:24:32.423Z,101650.94
2023-05-21T20:27:01.630Z,101645.16
2023-05-21T20:29:29.962Z,101643.03
2023-05-21T20:31:58.046Z,101647.72
2023-05-21T20:34:29.566Z,101655.84
2023-05-21T20:36:58.321Z,101649.47
2023-05-21T20:39:27.838Z,101643.47
2023-05-21T20:41:56.484Z,101643.25
2023-05-21T20:44:25.957Z,101641.56
2023-05-21T20:46:57.619Z,101642.63
2023-05-21T20:49:28.184Z,101638.78
2023-05-21T20:51:56.514Z,101635.16
2023-05-21T20:54:24.521Z,101630.22
2023-05-21T20:56:55.549Z,101629.16
2023-05-21T20:59:23.408Z,101624.91
2023-05-21T21:01:52.666Z,101623.16
2023-05-21T21:04:20.818Z,101632.56
2023-05-21T21:06:50.326Z,101629.16
2023-05-21T21:09:18.270Z,101628.72
2023-05-21T21:11:46.263Z,101627.66
2023-05-21T21:14:14.882Z,101628.31
2023-05-21T21:16:42.870Z,101625.31
2023-05-21T21:19:10.826Z,101632.41
2023-05-21T21:21:38.978Z,101634.97
2023-05-21T21:24:09.063Z,101630.72
2023-05-21T21:26:36.947Z,101635.41
2023-05-21T21:29:04.946Z,101633.28
2023-05-21T21:31:32.845Z,101636.06
2023-05-21T21:34:01.176Z,101639.88
2023-05-21T21:36:29.712Z,101638.19
2023-05-21T21:38:58.068Z,101628.59
2023-05-21T21:41:27.322Z,101626.66
2023-05-21T21:43:55.447Z,101633.28
2023-05-21T21:46:23.369Z,101628.81
2023-05-21T21:48:51.192Z,101625.41
2023-05-21T21:51:19.933Z,101628.41
2023-05-21T21:53:49.103Z,101632.53
2023-05-21T21:56:19.960Z,101626.53
2023-05-21T21:58:49.446Z,101622.25
2023-05-21T22:01:17.430Z,101632.72
2023-05-21T22:03:45.556Z,101635.50
2023-05-21T22:06:13.487Z,101629.97
2023-05-21T22:08:41.541Z,101625.47
2023-05-21T22:11:09.960Z,101626.16
2023-05-21T22:13:38.672Z,101623.81
2023-05-21T22:16:08.447Z,101627.41
2023-05-21T22:18:41.537Z,101628.28
2023-05-21T22:21:10.808Z,101622.63
2023-05-21T22:23:39.700Z,101623.59
2023-05-21T22:26:08.720Z,101620.41
2023-05-21T22:28:36.790Z,101610.78
2023-05-21T22:31:04.999Z,101615.09
2023-05-21T22:33:34.322Z,101611.06
2023-05-21T22:36:02.439Z,101611.25
2023-05-21T22:38:30.510Z,101614.88
2023-05-21T22:40:58.434Z,101612.34
2023-05-21T22:43:26.793Z,101600.56
2023-05-21T22:45:54.824Z,101603.16
2023-05-21T22:48:23.040Z,101603.34
2023-05-21T22:50:53.488Z,101596.53
2023-05-21T22:53:21.764Z,101599.53
2023-05-21T22:55:49.846Z,101605.94
2023-05-21T22:58:18.267Z,101591.19
2023-05-21T23:00:47.595Z,101597.59
2023-05-21T23:03:17.840Z,101591.66
2023-05-21T23:05:46.167Z,101598.88
2023-05-21T23:08:15.757Z,101597.19
2023-05-21T23:10:43.750Z,101600.81
2023-05-21T23:13:12.944Z,101601.66
2023-05-21T23:15:43.660Z,101597.63
2023-05-21T23:18:11.838Z,101598.47
2023-05-21T23:20:42.234Z,101599.97
2023-05-21T23:23:10.988Z,101598.47
2023-05-21T23:25:40.291Z,101591.44
2023-05-21T23:28:08.413Z,101590.16
2023-05-21T23:30:36.611Z,101592.31
2023-05-21T23:33:04.865Z,101587.84
2023-05-21T23:35:32.891Z,101584.25
2023-05-21T23:38:00.986Z,101580.81
2023-05-21T23:40:29.085Z,101574.41
2023-05-21T23:42:59.025Z,101573.56
2023-05-21T23:45:27.033Z,101572.75
2023-05-21T23:47:55.172Z,101562.47
2023-05-21T23:50:25.335Z,101569.72
2023-05-21T23:52:53.368Z,101577.19
2023-05-21T23:55:21.538Z,101575.94
2023-05-21T23:57:49.583Z,101581.66
